Time;durP1;ratioP1;P1;durP2;ratioP2;P2;SDS_P1;SDS_P2;PMS_P1;PMS_P2;Temp;Humidity;BMP_temperature;BMP_pressure;BME280_temperature;BME280_humidity;BME280_pressure;Samples;Min_cycle;Max_cycle;Signal;HPM_P1;HPM_P2
2021/06/11 00:01:38;;;;;;;10.60;9.67;;;;;;;;;;4999599;28;20426;-49
2021/06/11 00:04:04;;;;;;;10.30;9.27;;;;;;;;;;4999486;28;20407;-49
2021/06/11 00:06:31;;;;;;;10.43;9.50;;;;;;;;;;4999342;28;20403;-49
2021/06/11 00:08:57;;;;;;;10.80;9.67;;;;;;;;;;4999786;28;20403;-50
2021/06/11 00:11:23;;;;;;;14.67;11.63;;;;;;;;;;4999705;28;20428;-50
2021/06/11 00:13:49;;;;;;;10.67;9.67;;;;;;;;;;4999567;28;20433;-49
2021/06/11 00:16:15;;;;;;;11.33;10.33;;;;;;;;;;4999415;28;20404;-50
2021/06/11 00:18:41;;;;;;;15.47;10.37;;;;;;;;;;4999396;28;20463;-50
2021/06/11 00:21:07;;;;;;;11.53;10.43;;;;;;;;;;4999136;28;20394;-49
2021/06/11 00:23:33;;;;;;;11.33;10.07;;;;;;;;;;4998717;28;20495;-49
2021/06/11 00:25:59;;;;;;;11.73;10.50;;;;;;;;;;4998460;28;20415;-50
2021/06/11 00:28:25;;;;;;;12.77;10.23;;;;;;;;;;4998834;28;20888;-49
2021/06/11 00:30:51;;;;;;;11.60;10.50;;;;;;;;;;4998749;28;20394;-49
2021/06/11 00:33:17;;;;;;;10.93;10.03;;;;;;;;;;4996984;28;20893;-49
2021/06/11 00:35:43;;;;;;;11.90;10.80;;;;;;;;;;4997273;28;20378;-49
2021/06/11 00:38:09;;;;;;;11.63;10.00;;;;;;;;;;4996649;28;21030;-49
2021/06/11 00:40:36;;;;;;;11.50;10.43;;;;;;;;;;4995466;28;20478;-49
2021/06/11 00:43:03;;;;;;;10.70;9.70;;;;;;;;;;4995393;28;20400;-49
2021/06/11 00:45:29;;;;;;;11.30;10.20;;;;;;;;;;4994604;28;20437;-49
2021/06/11 00:47:55;;;;;;;11.80;10.73;;;;;;;;;;4994062;28;20386;-50
2021/06/11 00:50:23;;;;;;;12.00;10.90;;;;;;;;;;4994059;28;20470;-49
2021/06/11 00:52:50;;;;;;;11.80;10.73;;;;;;;;;;4993855;28;20426;-49
2021/06/11 00:55:16;;;;;;;11.60;10.60;;;;;;;;;;4993808;28;20783;-49
2021/06/11 00:57:43;;;;;;;12.33;11.20;;;;;;;;;;4993910;28;20463;-50
2021/06/11 01:00:09;;;;;;;11.97;10.87;;;;;;;;;;4993926;28;20888;-49
2021/06/11 01:02:35;;;;;;;13.73;10.87;;;;;;;;;;4993378;28;20394;-49
2021/06/11 01:05:01;;;;;;;11.43;10.43;;;;;;;;;;4993172;28;20458;-49
2021/06/11 01:07:27;;;;;;;11.13;9.93;;;;;;;;;;4993145;28;20457;-49
2021/06/11 01:09:54;;;;;;;12.60;11.40;;;;;;;;;;4993407;28;20831;-49
2021/06/11 01:12:20;;;;;;;14.70;10.87;;;;;;;;;;4993423;28;20954;-49
2021/06/11 01:14:46;;;;;;;13.30;10.90;;;;;;;;;;4993576;28;20743;-48
2021/06/11 01:17:12;;;;;;;12.57;11.10;;;;;;;;;;4992986;28;20462;-49
2021/06/11 01:19:46;;;;;;;18.67;12.50;;;;;;;;;;4993590;28;20385;-49
2021/06/11 01:22:16;;;;;;;11.83;10.67;;;;;;;;;;4993212;28;20506;-48
2021/06/11 01:25:00;;;;;;;12.40;11.13;;;;;;;;;;4993912;28;20408;-49
2021/06/11 01:27:27;;;;;;;12.50;11.30;;;;;;;;;;4993988;28;20441;-49
2021/06/11 01:29:56;;;;;;;11.00;10.07;;;;;;;;;;4994402;28;20498;-48
2021/06/11 01:32:22;;;;;;;12.13;10.90;;;;;;;;;;4994429;28;20430;-48
2021/06/11 01:34:50;;;;;;;15.17;11.07;;;;;;;;;;4994058;28;20430;-50
2021/06/11 01:37:21;;;;;;;12.70;11.40;;;;;;;;;;4994001;28;20487;-49
2021/06/11 01:39:50;;;;;;;14.37;11.47;;;;;;;;;;4995211;28;20892;-48
2021/06/11 01:42:16;;;;;;;12.97;11.77;;;;;;;;;;4994650;28;20455;-50
2021/06/11 01:44:44;;;;;;;11.50;10.60;;;;;;;;;;4995782;28;21045;-49
2021/06/11 01:47:12;;;;;;;10.97;10.07;;;;;;;;;;4995664;28;20408;-49
2021/06/11 01:49:39;;;;;;;12.87;11.87;;;;;;;;;;4995037;28;20458;-50
2021/06/11 01:52:07;;;;;;;12.40;11.30;;;;;;;;;;4996180;28;20433;-50
2021/06/11 01:54:33;;;;;;;12.10;11.10;;;;;;;;;;4996301;28;20858;-49
2021/06/11 01:57:00;;;;;;;11.70;10.70;;;;;;;;;;4996407;28;20477;-50
2021/06/11 01:59:26;;;;;;;12.37;11.27;;;;;;;;;;4997215;28;20385;-49
2021/06/11 02:01:54;;;;;;;12.07;10.87;;;;;;;;;;4996850;28;20510;-50
2021/06/11 02:04:20;;;;;;;13.87;12.43;;;;;;;;;;4995857;28;20416;-49
2021/06/11 02:06:46;;;;;;;12.63;11.53;;;;;;;;;;4996319;28;20379;-49
2021/06/11 02:09:13;;;;;;;12.70;11.37;;;;;;;;;;4996521;28;20408;-50
2021/06/11 02:11:41;;;;;;;12.70;11.47;;;;;;;;;;4996339;28;20391;-49
2021/06/11 02:14:10;;;;;;;12.97;11.80;;;;;;;;;;4996113;28;20431;-49
2021/06/11 02:16:36;;;;;;;12.60;11.43;;;;;;;;;;4995820;28;20427;-49
2021/06/11 02:19:02;;;;;;;11.70;10.70;;;;;;;;;;4995664;28;20403;-49
2021/06/11 02:21:29;;;;;;;14.00;11.67;;;;;;;;;;4995772;28;20870;-49
2021/06/11 02:23:55;;;;;;;14.50;12.40;;;;;;;;;;4995962;28;20374;-49
2021/06/11 02:26:21;;;;;;;12.40;11.20;;;;;;;;;;4994703;28;20435;-49
2021/06/11 02:28:49;;;;;;;13.57;11.73;;;;;;;;;;4994777;28;20407;-50
2021/06/11 02:31:15;;;;;;;12.83;11.53;;;;;;;;;;4994093;28;20424;-50
2021/06/11 02:33:42;;;;;;;12.10;11.10;;;;;;;;;;4994242;28;20458;-50
2021/06/11 02:36:08;;;;;;;13.17;11.50;;;;;;;;;;4993755;28;20892;-48
2021/06/11 02:38:33;;;;;;;11.90;10.80;;;;;;;;;;4994052;28;20477;-49
2021/06/11 02:41:00;;;;;;;15.10;11.50;;;;;;;;;;4993995;28;20864;-49
2021/06/11 02:43:26;;;;;;;12.27;10.70;;;;;;;;;;4993776;28;20470;-49
2021/06/11 02:45:52;;;;;;;13.00;11.80;;;;;;;;;;4993240;28;20429;-49
2021/06/11 02:48:21;;;;;;;12.77;11.67;;;;;;;;;;4993545;28;20866;-48
2021/06/11 02:50:53;;;;;;;12.23;11.13;;;;;;;;;;4993364;28;20478;-50
2021/06/11 02:53:25;;;;;;;13.23;11.97;;;;;;;;;;4993043;28;20413;-49
2021/06/11 02:55:52;;;;;;;13.10;12.00;;;;;;;;;;4992656;28;20382;-50
2021/06/11 02:58:19;;;;;;;19.63;13.53;;;;;;;;;;4992498;28;20426;-49
2021/06/11 03:00:47;;;;;;;13.70;11.97;;;;;;;;;;4993138;28;20398;-49
2021/06/11 03:03:16;;;;;;;16.23;12.10;;;;;;;;;;4992186;28;20371;-49
2021/06/11 03:05:43;;;;;;;16.70;12.77;;;;;;;;;;4992416;28;20410;-49
2021/06/11 03:08:11;;;;;;;13.10;11.40;;;;;;;;;;4992618;28;20436;-48
2021/06/11 03:10:38;;;;;;;13.53;12.43;;;;;;;;;;4992359;28;20379;-49
2021/06/11 03:13:05;;;;;;;15.00;12.20;;;;;;;;;;4991888;28;20419;-49
2021/06/11 03:15:32;;;;;;;13.70;12.30;;;;;;;;;;4992083;28;20414;-49
2021/06/11 03:18:05;;;;;;;18.63;12.67;;;;;;;;;;4991903;28;20434;-50
2021/06/11 03:20:33;;;;;;;18.73;14.30;;;;;;;;;;4992567;28;20386;-49
2021/06/11 03:23:02;;;;;;;13.13;11.70;;;;;;;;;;4992315;28;20484;-49
2021/06/11 03:25:33;;;;;;;12.13;11.13;;;;;;;;;;4992389;28;20470;-50
2021/06/11 03:28:02;;;;;;;13.37;11.40;;;;;;;;;;4992055;28;20381;-49
2021/06/11 03:30:30;;;;;;;13.70;12.30;;;;;;;;;;4992583;28;20383;-50
2021/06/11 03:33:10;;;;;;;14.40;12.97;;;;;;;;;;4992693;28;20417;-48
2021/06/11 03:35:36;;;;;;;13.30;11.90;;;;;;;;;;4994266;28;20922;-49
2021/06/11 03:38:04;;;;;;;14.20;12.10;;;;;;;;;;4993173;28;20462;-49
2021/06/11 03:40:32;;;;;;;13.90;12.60;;;;;;;;;;4993746;28;20499;-49
2021/06/11 03:42:58;;;;;;;13.60;12.30;;;;;;;;;;4994526;28;20378;-49
2021/06/11 03:45:24;;;;;;;13.67;12.37;;;;;;;;;;4976688;28;20412;-49
2021/06/11 03:47:52;;;;;;;13.97;12.13;;;;;;;;;;4994939;28;20390;-49
2021/06/11 03:50:21;;;;;;;13.80;12.60;;;;;;;;;;4995300;28;20386;-49
2021/06/11 03:52:49;;;;;;;14.47;11.77;;;;;;;;;;4995099;28;20941;-50
2021/06/11 03:55:22;;;;;;;17.70;12.47;;;;;;;;;;4995300;28;20530;-49
2021/06/11 03:57:51;;;;;;;13.37;12.17;;;;;;;;;;4995088;28;20840;-50
2021/06/11 04:00:18;;;;;;;13.17;11.70;;;;;;;;;;4994659;28;20487;-50
2021/06/11 04:02:44;;;;;;;13.70;12.00;;;;;;;;;;4995310;28;20418;-49
2021/06/11 04:05:10;;;;;;;16.10;12.27;;;;;;;;;;4995727;28;20470;-50
2021/06/11 04:07:44;;;;;;;12.90;11.70;;;;;;;;;;4995527;28;20772;-49
2021/06/11 04:10:19;;;;;;;13.77;11.93;;;;;;;;;;4994648;28;20822;-50
2021/06/11 04:12:49;;;;;;;13.63;12.20;;;;;;;;;;4994774;28;20415;-50
2021/06/11 04:15:16;;;;;;;13.90;12.57;;;;;;;;;;4995389;28;20410;-49
2021/06/11 04:17:46;;;;;;;15.03;13.53;;;;;;;;;;4998003;28;20429;-48
2021/06/11 04:20:19;;;;;;;13.90;12.70;;;;;;;;;;4996413;28;20396;-49
2021/06/11 04:22:47;;;;;;;14.30;12.90;;;;;;;;;;4997451;28;20413;-49
2021/06/11 04:25:14;;;;;;;16.67;12.70;;;;;;;;;;4996817;28;20381;-49
2021/06/11 04:27:42;;;;;;;14.17;12.70;;;;;;;;;;4996830;28;20387;-49
2021/06/11 04:30:09;;;;;;;12.63;11.43;;;;;;;;;;4997137;28;20443;-50
2021/06/11 04:32:35;;;;;;;13.90;12.53;;;;;;;;;;4996180;28;20449;-48
2021/06/11 04:35:01;;;;;;;13.87;12.50;;;;;;;;;;4996896;28;20412;-50
2021/06/11 04:37:27;;;;;;;13.33;11.93;;;;;;;;;;4996284;28;20455;-50
2021/06/11 04:39:52;;;;;;;16.10;12.40;;;;;;;;;;4996420;28;20831;-49
2021/06/11 04:42:19;;;;;;;14.90;11.87;;;;;;;;;;4996333;28;20424;-49
2021/06/11 04:44:46;;;;;;;19.90;12.90;;;;;;;;;;4996334;28;20404;-49
2021/06/11 04:47:12;;;;;;;15.07;13.30;;;;;;;;;;4996251;28;20371;-50
2021/06/11 04:49:38;;;;;;;15.93;13.00;;;;;;;;;;4996366;28;20839;-50
2021/06/11 04:52:04;;;;;;;14.60;11.97;;;;;;;;;;4994879;28;20466;-49
2021/06/11 04:54:30;;;;;;;15.87;12.70;;;;;;;;;;4993879;28;20771;-48
2021/06/11 04:56:56;;;;;;;14.10;12.90;;;;;;;;;;4993265;28;20514;-48
2021/06/11 04:59:22;;;;;;;16.57;13.80;;;;;;;;;;4993993;28;20800;-48
2021/06/11 05:01:48;;;;;;;14.87;13.00;;;;;;;;;;4993911;28;20427;-49
2021/06/11 05:04:14;;;;;;;15.47;13.30;;;;;;;;;;4993359;28;20491;-48
2021/06/11 05:06:40;;;;;;;14.80;13.07;;;;;;;;;;4993181;28;20465;-49
2021/06/11 05:09:06;;;;;;;12.87;11.57;;;;;;;;;;4975646;28;20438;-49
2021/06/11 05:11:32;;;;;;;17.30;13.67;;;;;;;;;;4992966;28;20918;-50
2021/06/11 05:13:58;;;;;;;16.67;13.77;;;;;;;;;;4992890;28;20407;-51
2021/06/11 05:16:24;;;;;;;23.20;13.30;;;;;;;;;;4992911;28;20436;-48
2021/06/11 05:18:50;;;;;;;13.60;12.30;;;;;;;;;;4992833;28;20467;-49
2021/06/11 05:21:16;;;;;;;16.17;14.57;;;;;;;;;;4992957;28;20397;-50
2021/06/11 05:23:42;;;;;;;18.83;13.50;;;;;;;;;;4992734;28;20400;-51
2021/06/11 05:26:08;;;;;;;18.00;14.20;;;;;;;;;;4992138;28;20486;-50
2021/06/11 05:28:34;;;;;;;14.73;13.33;;;;;;;;;;4992719;28;20404;-48
2021/06/11 05:31:00;;;;;;;18.43;13.43;;;;;;;;;;4992773;28;20398;-48
2021/06/11 05:33:26;;;;;;;17.57;14.30;;;;;;;;;;4992735;28;20390;-48
2021/06/11 05:35:52;;;;;;;17.07;13.60;;;;;;;;;;4992454;28;20391;-48
2021/06/11 05:38:18;;;;;;;15.30;13.70;;;;;;;;;;4992619;28;20429;-50
2021/06/11 05:40:45;;;;;;;19.27;15.37;;;;;;;;;;4992367;28;20405;-49
2021/06/11 05:43:10;;;;;;;14.20;12.80;;;;;;;;;;4992561;28;20431;-49
2021/06/11 05:45:37;;;;;;;19.07;14.80;;;;;;;;;;4992343;28;20400;-49
2021/06/11 05:48:04;;;;;;;16.50;14.60;;;;;;;;;;4992367;28;20382;-50
2021/06/11 05:50:30;;;;;;;16.80;13.87;;;;;;;;;;4992241;28;20752;-48
2021/06/11 05:52:56;;;;;;;17.67;15.10;;;;;;;;;;4992202;28;20478;-48
2021/06/11 05:55:23;;;;;;;17.27;14.80;;;;;;;;;;4992192;28;20391;-48
2021/06/11 05:57:49;;;;;;;17.93;14.70;;;;;;;;;;4991979;28;20487;-51
2021/06/11 06:00:15;;;;;;;15.30;13.70;;;;;;;;;;4992231;28;20855;-50
2021/06/11 06:02:41;;;;;;;16.97;15.27;;;;;;;;;;4991985;28;20416;-49
2021/06/11 06:05:08;;;;;;;17.10;15.40;;;;;;;;;;4992118;28;20411;-48
2021/06/11 06:07:38;;;;;;;15.63;13.37;;;;;;;;;;4991744;28;20906;-50
2021/06/11 06:10:07;;;;;;;22.00;14.33;;;;;;;;;;4992078;28;20412;-49
2021/06/11 06:12:33;;;;;;;23.17;16.40;;;;;;;;;;4991682;28;20406;-49
2021/06/11 06:14:59;;;;;;;20.07;15.37;;;;;;;;;;4991979;28;20439;-48
2021/06/11 06:17:31;;;;;;;18.50;14.50;;;;;;;;;;4974078;28;20498;-48
2021/06/11 06:19:57;;;;;;;17.93;14.27;;;;;;;;;;4991958;28;20947;-49
2021/06/11 06:22:24;;;;;;;17.37;14.20;;;;;;;;;;4991504;28;20428;-51
2021/06/11 06:24:50;;;;;;;18.17;14.70;;;;;;;;;;4991848;28;20396;-49
2021/06/11 06:27:16;;;;;;;15.07;13.40;;;;;;;;;;4991574;28;20527;-49
2021/06/11 06:29:42;;;;;;;17.73;15.93;;;;;;;;;;4991767;28;20394;-49
2021/06/11 06:32:08;;;;;;;16.93;15.20;;;;;;;;;;4991323;28;20427;-50
2021/06/11 06:34:34;;;;;;;15.57;14.07;;;;;;;;;;4991661;28;20417;-49
2021/06/11 06:37:00;;;;;;;17.87;15.80;;;;;;;;;;4990931;28;20524;-51
2021/06/11 06:39:27;;;;;;;16.10;14.40;;;;;;;;;;4991174;28;20880;-49
2021/06/11 06:41:53;;;;;;;16.83;15.03;;;;;;;;;;4991693;28;20853;-49
2021/06/11 06:44:19;;;;;;;22.00;16.30;;;;;;;;;;4991667;28;20888;-48
2021/06/11 06:46:45;;;;;;;17.97;15.90;;;;;;;;;;4991655;28;20814;-49
2021/06/11 06:49:11;;;;;;;21.07;17.73;;;;;;;;;;4991688;28;20404;-49
2021/06/11 06:51:37;;;;;;;20.40;15.87;;;;;;;;;;4991788;28;20825;-49
2021/06/11 06:54:04;;;;;;;16.73;15.03;;;;;;;;;;4991576;28;20479;-48
2021/06/11 06:56:30;;;;;;;17.97;16.10;;;;;;;;;;4991488;28;20404;-48
2021/06/11 06:58:59;;;;;;;23.43;17.70;;;;;;;;;;4991407;28;20459;-50
2021/06/11 07:01:26;;;;;;;16.03;14.43;;;;;;;;;;4991424;28;20939;-49
2021/06/11 07:03:56;;;;;;;19.23;14.90;;;;;;;;;;4990642;28;20400;-48
2021/06/11 07:06:22;;;;;;;16.30;14.67;;;;;;;;;;4990695;28;20408;-48
2021/06/11 07:08:48;;;;;;;17.83;14.97;;;;;;;;;;4990405;28;20462;-49
2021/06/11 07:11:14;;;;;;;16.77;13.53;;;;;;;;;;4988962;28;20837;-48
2021/06/11 07:13:40;;;;;;;18.10;15.47;;;;;;;;;;4990798;28;20836;-48
2021/06/11 07:16:06;;;;;;;16.10;14.50;;;;;;;;;;4990267;28;20435;-49
2021/06/11 07:18:32;;;;;;;15.17;13.60;;;;;;;;;;4990552;28;20478;-48
2021/06/11 07:20:58;;;;;;;16.37;14.67;;;;;;;;;;4990969;28;20523;-49
2021/06/11 07:23:24;;;;;;;19.07;14.90;;;;;;;;;;4991313;28;20411;-49
2021/06/11 07:25:50;;;;;;;14.37;12.33;;;;;;;;;;4991196;28;20907;-48
2021/06/11 07:28:16;;;;;;;12.93;11.57;;;;;;;;;;4991072;28;20404;-49
2021/06/11 07:30:42;;;;;;;15.87;12.40;;;;;;;;;;4990787;28;20475;-50
2021/06/11 07:33:08;;;;;;;15.27;11.87;;;;;;;;;;4990981;28;20427;-50
2021/06/11 07:35:35;;;;;;;14.23;11.30;;;;;;;;;;4991120;28;20408;-51
2021/06/11 07:38:01;;;;;;;14.53;11.30;;;;;;;;;;4991053;28;20967;-49
2021/06/11 07:40:27;;;;;;;12.47;10.23;;;;;;;;;;4990822;28;20488;-49
2021/06/11 07:42:53;;;;;;;13.27;10.23;;;;;;;;;;4990871;28;20400;-50
2021/06/11 07:45:19;;;;;;;13.50;10.77;;;;;;;;;;4990935;28;20466;-49
2021/06/11 07:47:45;;;;;;;13.63;11.40;;;;;;;;;;4990684;28;20408;-49
2021/06/11 07:50:11;;;;;;;15.77;10.77;;;;;;;;;;4993647;28;20916;-49
2021/06/11 07:52:37;;;;;;;12.83;11.00;;;;;;;;;;4994286;28;20738;-49
2021/06/11 07:55:07;;;;;;;14.07;12.17;;;;;;;;;;4995042;28;20810;-49
2021/06/11 07:57:33;;;;;;;12.20;9.70;;;;;;;;;;4994133;28;20455;-49
2021/06/11 07:59:59;;;;;;;10.50;9.33;;;;;;;;;;4994961;28;20957;-51
2021/06/11 08:02:25;;;;;;;15.10;9.30;;;;;;;;;;4994166;28;20423;-50
2021/06/11 08:04:51;;;;;;;10.17;9.07;;;;;;;;;;4994398;28;20400;-48
2021/06/11 08:07:17;;;;;;;14.17;9.20;;;;;;;;;;4994133;28;20412;-49
2021/06/11 08:09:44;;;;;;;15.00;10.10;;;;;;;;;;4994358;28;20404;-49
2021/06/11 08:12:10;;;;;;;16.03;12.43;;;;;;;;;;4994114;28;20427;-49
2021/06/11 08:14:37;;;;;;;12.03;9.80;;;;;;;;;;4994105;28;20423;-49
2021/06/11 08:17:03;;;;;;;15.77;10.63;;;;;;;;;;4993791;28;20486;-49
2021/06/11 08:19:29;;;;;;;17.03;10.23;;;;;;;;;;4994143;28;20396;-49
2021/06/11 08:21:54;;;;;;;11.07;9.97;;;;;;;;;;4993926;28;20935;-50
2021/06/11 08:24:21;;;;;;;16.50;11.27;;;;;;;;;;4993993;28;20439;-49
2021/06/11 08:26:47;;;;;;;20.73;10.47;;;;;;;;;;4993934;28;20490;-49
2021/06/11 08:29:12;;;;;;;10.83;8.90;;;;;;;;;;4993835;28;20904;-50
2021/06/11 08:31:38;;;;;;;13.23;9.40;;;;;;;;;;4993829;28;21014;-50
2021/06/11 08:34:04;;;;;;;39.73;18.67;;;;;;;;;;4993714;28;20777;-51
2021/06/11 08:36:30;;;;;;;159.37;53.10;;;;;;;;;;4993749;28;20411;-51
2021/06/11 08:38:56;;;;;;;67.00;25.53;;;;;;;;;;4993702;28;20818;-51
2021/06/11 08:41:22;;;;;;;18.20;8.93;;;;;;;;;;4993825;28;20416;-49
2021/06/11 08:43:48;;;;;;;14.40;9.10;;;;;;;;;;4993466;28;20491;-49
2021/06/11 08:46:15;;;;;;;15.70;9.27;;;;;;;;;;4993599;28;20490;-49
2021/06/11 08:48:42;;;;;;;16.83;8.73;;;;;;;;;;4993787;28;20412;-49
2021/06/11 08:51:11;;;;;;;11.80;8.93;;;;;;;;;;4993729;28;20841;-49
2021/06/11 08:53:40;;;;;;;22.00;11.43;;;;;;;;;;4993546;28;20511;-51
2021/06/11 08:56:06;;;;;;;11.23;9.17;;;;;;;;;;4993532;28;20415;-49
2021/06/11 08:58:32;;;;;;;16.90;10.37;;;;;;;;;;4993265;28;20456;-49
2021/06/11 09:00:58;;;;;;;23.10;10.77;;;;;;;;;;4992690;28;20435;-49
2021/06/11 09:03:27;;;;;;;14.33;10.70;;;;;;;;;;4993698;28;20405;-50
2021/06/11 09:06:25;;;;;;;18.10;10.30;;;;;;;;;;4993141;28;20839;-49
2021/06/11 09:08:55;;;;;;;17.30;10.30;;;;;;;;;;4982173;28;20903;-49
2021/06/11 09:11:22;;;;;;;29.00;11.20;;;;;;;;;;4993411;28;20420;-49
2021/06/11 09:13:51;;;;;;;21.00;13.23;;;;;;;;;;4993954;28;20463;-50
2021/06/11 09:16:24;;;;;;;19.87;12.50;;;;;;;;;;4989810;28;20466;-49
2021/06/11 09:18:51;;;;;;;17.00;11.67;;;;;;;;;;4993064;28;20911;-51
2021/06/11 09:21:26;;;;;;;12.33;11.13;;;;;;;;;;4992582;28;20436;-50
2021/06/11 09:24:21;;;;;;;15.37;10.20;;;;;;;;;;4992824;28;20403;-51
2021/06/11 09:26:56;;;;;;;20.30;12.10;;;;;;;;;;4985912;28;20919;-49
2021/06/11 09:29:25;;;;;;;17.37;15.67;;;;;;;;;;4992784;28;20414;-51
2021/06/11 09:31:51;;;;;;;18.47;13.83;;;;;;;;;;4992517;28;20482;-49
2021/06/11 09:34:21;;;;;;;20.00;15.43;;;;;;;;;;4992295;28;20408;-49
2021/06/11 09:37:06;;;;;;;18.93;17.00;;;;;;;;;;4992514;28;20400;-49
2021/06/11 09:40:00;;;;;;;18.00;16.03;;;;;;;;;;4992720;28;20404;-49
2021/06/11 09:42:33;;;;;;;18.00;15.27;;;;;;;;;;4990103;28;20447;-51
2021/06/11 09:44:59;;;;;;;20.10;13.87;;;;;;;;;;4992616;28;20888;-49
2021/06/11 09:47:35;;;;;;;16.33;13.43;;;;;;;;;;4992457;28;20454;-50
2021/06/11 09:50:21;;;;;;;14.40;13.03;;;;;;;;;;4992465;28;20804;-50
2021/06/11 09:52:56;;;;;;;15.60;14.00;;;;;;;;;;4992298;28;20923;-49
2021/06/11 09:55:33;;;;;;;19.50;17.70;;;;;;;;;;4990476;28;20974;-49
2021/06/11 09:58:12;;;;;;;16.33;14.17;;;;;;;;;;4990493;28;20455;-50
2021/06/11 10:00:40;;;;;;;15.40;14.10;;;;;;;;;;4990231;28;20400;-50
2021/06/11 10:03:13;;;;;;;14.23;12.33;;;;;;;;;;4990111;28;20427;-49
2021/06/11 10:05:40;;;;;;;16.37;11.77;;;;;;;;;;4990245;28;20892;-50
2021/06/11 10:08:06;;;;;;;19.10;17.23;;;;;;;;;;4990565;28;20405;-51
2021/06/11 10:10:32;;;;;;;20.40;18.30;;;;;;;;;;4990596;28;20805;-49
2021/06/11 10:12:59;;;;;;;15.77;12.47;;;;;;;;;;4990836;28;20410;-49
2021/06/11 10:15:25;;;;;;;13.47;12.30;;;;;;;;;;4992129;28;20408;-50
2021/06/11 10:17:51;;;;;;;16.43;14.73;;;;;;;;;;4991492;28;21005;-50
2021/06/11 10:20:17;;;;;;;14.77;13.13;;;;;;;;;;4992140;28;20444;-49
2021/06/11 10:22:43;;;;;;;14.53;12.93;;;;;;;;;;4991564;28;20420;-49
2021/06/11 10:25:12;;;;;;;14.07;12.80;;;;;;;;;;4991843;28;20404;-50
2021/06/11 10:27:40;;;;;;;15.00;13.90;;;;;;;;;;4991468;28;20454;-49
2021/06/11 10:30:06;;;;;;;15.30;14.10;;;;;;;;;;4991460;28;20407;-50
2021/06/11 10:32:33;;;;;;;15.07;13.87;;;;;;;;;;4991487;28;20420;-49
2021/06/11 10:34:59;;;;;;;15.13;13.50;;;;;;;;;;4991755;28;20407;-50
2021/06/11 10:37:37;;;;;;;13.30;12.30;;;;;;;;;;4991431;28;20864;-51
2021/06/11 10:40:22;;;;;;;11.70;10.03;;;;;;;;;;4991782;28;20404;-52
2021/06/11 10:42:48;;;;;;;10.43;9.40;;;;;;;;;;4991339;28;20396;-51
2021/06/11 10:45:34;;;;;;;10.83;8.33;;;;;;;;;;4990468;28;20396;-51
2021/06/11 10:48:00;;;;;;;11.30;7.03;;;;;;;;;;4989303;28;20530;-51
2021/06/11 10:50:33;;;;;;;10.83;8.10;;;;;;;;;;4990706;28;20840;-50
2021/06/11 10:53:13;;;;;;;8.37;6.77;;;;;;;;;;4995947;28;20443;-51
2021/06/11 10:55:48;;;;;;;7.33;6.63;;;;;;;;;;4996536;28;20403;-50
2021/06/11 10:58:14;;;;;;;7.33;6.63;;;;;;;;;;4996612;28;20463;-50
2021/06/11 11:00:41;;;;;;;5.80;5.40;;;;;;;;;;4992345;28;20927;-50
2021/06/11 11:03:08;;;;;;;6.97;6.00;;;;;;;;;;4975989;28;20776;-51
2021/06/11 11:05:34;;;;;;;7.00;6.47;;;;;;;;;;4975804;28;20700;-50
2021/06/11 11:08:01;;;;;;;4.97;4.57;;;;;;;;;;4994972;28;20447;-51
2021/06/11 11:10:44;;;;;;;6.83;6.33;;;;;;;;;;4995106;28;20207;-50
2021/06/11 11:13:11;;;;;;;7.57;5.90;;;;;;;;;;4996163;28;20404;-50
2021/06/11 11:15:38;;;;;;;11.40;6.33;;;;;;;;;;4995817;28;20410;-51
2021/06/11 11:18:14;;;;;;;5.90;5.40;;;;;;;;;;4995462;28;20494;-50
2021/06/11 11:20:41;;;;;;;7.73;6.30;;;;;;;;;;4995097;28;20495;-51
2021/06/11 11:23:09;;;;;;;6.70;6.00;;;;;;;;;;4997448;28;20404;-51
2021/06/11 11:25:35;;;;;;;4.97;4.67;;;;;;;;;;5000033;28;20427;-51
2021/06/11 11:28:02;;;;;;;6.60;5.97;;;;;;;;;;4991462;28;20444;-51
2021/06/11 11:30:29;;;;;;;6.00;5.40;;;;;;;;;;5000187;28;20443;-51
2021/06/11 11:32:55;;;;;;;5.57;5.17;;;;;;;;;;4997359;28;20443;-50
2021/06/11 11:35:22;;;;;;;5.30;4.87;;;;;;;;;;5019038;28;20419;-50
2021/06/11 11:37:52;;;;;;;6.83;4.70;;;;;;;;;;4983242;28;21188;-50
2021/06/11 11:40:19;;;;;;;8.97;4.90;;;;;;;;;;4978850;28;20928;-51
2021/06/11 11:42:45;;;;;;;4.60;4.20;;;;;;;;;;4978371;28;20493;-51
2021/06/11 11:45:11;;;;;;;5.10;4.47;;;;;;;;;;4978617;28;20706;-50
2021/06/11 11:47:37;;;;;;;5.53;4.20;;;;;;;;;;4978911;28;20412;-51
2021/06/11 11:50:04;;;;;;;5.53;4.90;;;;;;;;;;4977793;28;20405;-51
2021/06/11 11:52:30;;;;;;;5.50;5.20;;;;;;;;;;4977704;28;20513;-51
2021/06/11 11:54:57;;;;;;;5.13;4.73;;;;;;;;;;4977318;28;20404;-51
2021/06/11 11:57:23;;;;;;;4.67;4.27;;;;;;;;;;4979146;28;20515;-51
2021/06/11 11:59:50;;;;;;;4.80;4.50;;;;;;;;;;4980174;28;20397;-50
2021/06/11 12:02:16;;;;;;;5.37;4.87;;;;;;;;;;4980490;28;20429;-50
2021/06/11 12:04:42;;;;;;;5.13;4.73;;;;;;;;;;4981421;28;20456;-50
2021/06/11 12:07:08;;;;;;;7.33;6.63;;;;;;;;;;4980723;28;20420;-51
2021/06/11 12:09:35;;;;;;;4.87;4.47;;;;;;;;;;4980538;28;20419;-50
2021/06/11 12:12:01;;;;;;;4.60;4.30;;;;;;;;;;4980734;28;20839;-51
2021/06/11 12:14:27;;;;;;;5.57;5.17;;;;;;;;;;4980553;28;20943;-51
2021/06/11 12:16:53;;;;;;;4.50;4.30;;;;;;;;;;4980035;28;20424;-50
2021/06/11 12:19:19;;;;;;;6.27;4.40;;;;;;;;;;4979759;28;20413;-51
2021/06/11 12:21:44;;;;;;;5.53;5.17;;;;;;;;;;4980014;28;20433;-50
2021/06/11 12:24:11;;;;;;;5.73;5.00;;;;;;;;;;4980010;28;20413;-50
2021/06/11 12:26:37;;;;;;;5.80;5.40;;;;;;;;;;4979959;28;20440;-50
2021/06/11 12:29:03;;;;;;;5.43;5.03;;;;;;;;;;4980344;28;20412;-49
2021/06/11 12:31:30;;;;;;;5.17;4.87;;;;;;;;;;4980029;28;20432;-50
2021/06/11 12:33:56;;;;;;;5.27;4.77;;;;;;;;;;4980101;28;20734;-50
2021/06/11 12:36:23;;;;;;;5.23;4.93;;;;;;;;;;4979014;28;20401;-50
2021/06/11 12:38:48;;;;;;;5.77;5.47;;;;;;;;;;4979240;28;20456;-50
2021/06/11 12:41:15;;;;;;;6.33;5.10;;;;;;;;;;4979975;28;20427;-51
2021/06/11 12:46:27;;;;;;;6.83;5.70;;;;;;;;;;4977890;28;20407;-51
2021/06/11 12:48:53;;;;;;;6.37;5.87;;;;;;;;;;4977947;28;20904;-51
2021/06/11 12:51:20;;;;;;;5.60;5.20;;;;;;;;;;4977623;28;20424;-51
2021/06/11 12:53:46;;;;;;;5.90;5.40;;;;;;;;;;4976826;28;20550;-51
2021/06/11 12:56:12;;;;;;;5.93;5.40;;;;;;;;;;4978793;28;20409;-51
2021/06/11 12:58:38;;;;;;;4.57;4.27;;;;;;;;;;4978738;28;20456;-50
2021/06/11 13:01:04;;;;;;;4.37;4.07;;;;;;;;;;4978320;28;20491;-51
2021/06/11 13:03:30;;;;;;;4.93;4.53;;;;;;;;;;4978278;28;20404;-51
2021/06/11 13:05:56;;;;;;;5.53;4.37;;;;;;;;;;4978269;28;20597;-50
2021/06/11 13:08:22;;;;;;;5.07;4.63;;;;;;;;;;4978428;28;20405;-50
2021/06/11 13:10:49;;;;;;;5.40;4.90;;;;;;;;;;4978611;28;20417;-50
2021/06/11 13:13:15;;;;;;;8.20;5.63;;;;;;;;;;4978385;28;20420;-50
2021/06/11 13:15:41;;;;;;;6.30;5.60;;;;;;;;;;4978225;28;20408;-50
2021/06/11 13:18:08;;;;;;;7.00;6.30;;;;;;;;;;4977834;28;20460;-50
2021/06/11 13:20:34;;;;;;;5.93;5.50;;;;;;;;;;4976912;28;20413;-50
2021/06/11 13:23:02;;;;;;;6.13;5.63;;;;;;;;;;4977676;28;20432;-50
2021/06/11 13:25:28;;;;;;;6.23;5.57;;;;;;;;;;4977856;28;20488;-50
2021/06/11 13:27:54;;;;;;;6.77;5.40;;;;;;;;;;4977610;28;20455;-50
2021/06/11 13:30:20;;;;;;;5.33;4.93;;;;;;;;;;4961029;28;20417;-50
2021/06/11 13:32:46;;;;;;;5.27;4.77;;;;;;;;;;4978770;28;20486;-50
2021/06/11 13:35:13;;;;;;;4.70;4.33;;;;;;;;;;4978066;28;20421;-50
2021/06/11 13:37:39;;;;;;;5.30;4.83;;;;;;;;;;4978621;28;20464;-50
2021/06/11 13:40:05;;;;;;;5.60;5.00;;;;;;;;;;4978373;28;20590;-51
2021/06/11 13:42:31;;;;;;;5.00;4.60;;;;;;;;;;4990829;28;20471;-50
2021/06/11 13:44:57;;;;;;;6.87;5.90;;;;;;;;;;4996913;28;20475;-51
2021/06/11 13:47:23;;;;;;;5.60;5.20;;;;;;;;;;4995611;28;20440;-50
2021/06/11 13:49:49;;;;;;;5.87;5.37;;;;;;;;;;4995246;28;20408;-50
2021/06/11 13:52:15;;;;;;;12.33;5.90;;;;;;;;;;4994819;28;20475;-50
2021/06/11 13:54:41;;;;;;;5.73;5.40;;;;;;;;;;4994970;28;20491;-50
2021/06/11 13:57:08;;;;;;;6.37;5.83;;;;;;;;;;4994850;28;20459;-50
2021/06/11 13:59:35;;;;;;;6.13;5.57;;;;;;;;;;4994862;28;20488;-51
2021/06/11 14:02:01;;;;;;;7.63;5.70;;;;;;;;;;4994968;28;20786;-50
2021/06/11 14:04:27;;;;;;;11.40;5.33;;;;;;;;;;4994768;28;20408;-51
2021/06/11 14:06:53;;;;;;;5.90;5.40;;;;;;;;;;4993856;28;20408;-51
2021/06/11 14:09:19;;;;;;;5.73;5.10;;;;;;;;;;4994061;28;20815;-50
2021/06/11 14:11:45;;;;;;;7.07;5.50;;;;;;;;;;4994008;28;20434;-50
2021/06/11 14:14:11;;;;;;;6.07;5.57;;;;;;;;;;4994586;28;20412;-50
2021/06/11 14:16:37;;;;;;;5.27;4.97;;;;;;;;;;4993824;28;20404;-50
2021/06/11 14:19:03;;;;;;;5.80;5.40;;;;;;;;;;4994373;28;20462;-50
2021/06/11 14:21:30;;;;;;;5.80;5.13;;;;;;;;;;4994050;28;20455;-51
2021/06/11 14:23:56;;;;;;;4.13;3.87;;;;;;;;;;4994861;28;20923;-50
2021/06/11 14:26:22;;;;;;;3.93;3.63;;;;;;;;;;4995080;28;20404;-50
2021/06/11 14:28:48;;;;;;;4.10;3.90;;;;;;;;;;4994629;28;20458;-49